sensor_id;sensor_type;location;lat;lon;timestamp;temperature;humidity
610;DHT22;292;48.800;9.216;2023-03-01T00:02:22;3.00;57.60
610;DHT22;292;48.800;9.216;2023-03-01T00:04:49;3.00;57.60
610;DHT22;292;48.800;9.216;2023-03-01T00:07:17;3.00;57.60
610;DHT22;292;48.800;9.216;2023-03-01T00:09:44;3.00;57.70
610;DHT22;292;48.800;9.216;2023-03-01T00:12:11;3.00;57.70
610;DHT22;292;48.800;9.216;2023-03-01T00:14:38;3.00;57.80
610;DHT22;292;48.800;9.216;2023-03-01T00:17:06;2.90;57.80
610;DHT22;292;48.800;9.216;2023-03-01T00:19:33;2.90;57.80
610;DHT22;292;48.800;9.216;2023-03-01T00:22:00;2.90;58.00
610;DHT22;292;48.800;9.216;2023-03-01T00:24:28;2.90;58.10
610;DHT22;292;48.800;9.216;2023-03-01T00:26:55;2.90;58.10
610;DHT22;292;48.800;9.216;2023-03-01T00:29:23;2.80;58.20
610;DHT22;292;48.800;9.216;2023-03-01T00:31:50;2.80;58.20
610;DHT22;292;48.800;9.216;2023-03-01T00:34:17;2.80;58.40
610;DHT22;292;48.800;9.216;2023-03-01T00:36:44;2.80;58.40
610;DHT22;292;48.800;9.216;2023-03-01T00:39:13;2.80;58.40
610;DHT22;292;48.800;9.216;2023-03-01T00:41:42;2.80;58.40
610;DHT22;292;48.800;9.216;2023-03-01T00:44:10;2.80;58.50
610;DHT22;292;48.800;9.216;2023-03-01T00:46:37;2.80;58.60
610;DHT22;292;48.800;9.216;2023-03-01T00:49:05;2.70;58.60
610;DHT22;292;48.800;9.216;2023-03-01T00:51:32;2.70;58.60
610;DHT22;292;48.800;9.216;2023-03-01T00:54:01;2.70;58.80
610;DHT22;292;48.800;9.216;2023-03-01T00:56:29;2.70;58.80
610;DHT22;292;48.800;9.216;2023-03-01T00:58:57;2.70;58.80
610;DHT22;292;48.800;9.216;2023-03-01T01:01:26;2.70;58.80
610;DHT22;292;48.800;9.216;2023-03-01T01:03:57;2.80;58.80
610;DHT22;292;48.800;9.216;2023-03-01T01:06:27;2.80;58.80
610;DHT22;292;48.800;9.216;2023-03-01T01:08:54;2.80;58.80
610;DHT22;292;48.800;9.216;2023-03-01T01:11:22;2.80;58.80
610;DHT22;292;48.800;9.216;2023-03-01T01:13:50;2.90;58.80
610;DHT22;292;48.800;9.216;2023-03-01T01:16:20;2.90;58.80
610;DHT22;292;48.800;9.216;2023-03-01T01:18:47;2.90;58.80
610;DHT22;292;48.800;9.216;2023-03-01T01:21:16;2.80;58.80
610;DHT22;292;48.800;9.216;2023-03-01T01:23:44;2.80;58.80
610;DHT22;292;48.800;9.216;2023-03-01T01:26:14;2.80;59.00
610;DHT22;292;48.800;9.216;2023-03-01T01:28:41;2.80;59.00
610;DHT22;292;48.800;9.216;2023-03-01T01:31:08;2.70;59.00
610;DHT22;292;48.800;9.216;2023-03-01T01:33:37;2.70;59.20
610;DHT22;292;48.800;9.216;2023-03-01T01:36:05;2.60;59.20
610;DHT22;292;48.800;9.216;2023-03-01T01:38:32;2.60;59.30
610;DHT22;292;48.800;9.216;2023-03-01T01:41:00;2.60;59.30
610;DHT22;292;48.800;9.216;2023-03-01T01:43:28;2.60;59.40
610;DHT22;292;48.800;9.216;2023-03-01T01:45:57;2.50;59.60
610;DHT22;292;48.800;9.216;2023-03-01T01:48:29;2.40;59.60
610;DHT22;292;48.800;9.216;2023-03-01T01:51:09;2.40;59.80
610;DHT22;292;48.800;9.216;2023-03-01T01:53:38;2.40;60.00
610;DHT22;292;48.800;9.216;2023-03-01T01:56:06;2.30;60.20
610;DHT22;292;48.800;9.216;2023-03-01T01:58:36;2.30;60.40
610;DHT22;292;48.800;9.216;2023-03-01T02:01:04;2.30;60.50
610;DHT22;292;48.800;9.216;2023-03-01T02:03:33;2.20;60.70
610;DHT22;292;48.800;9.216;2023-03-01T02:06:06;2.20;60.80
610;DHT22;292;48.800;9.216;2023-03-01T02:08:38;2.20;61.00
610;DHT22;292;48.800;9.216;2023-03-01T02:11:07;2.20;61.00
610;DHT22;292;48.800;9.216;2023-03-01T02:13:35;2.20;61.10
610;DHT22;292;48.800;9.216;2023-03-01T02:16:03;2.20;61.10
610;DHT22;292;48.800;9.216;2023-03-01T02:18:31;2.20;61.20
610;DHT22;292;48.800;9.216;2023-03-01T02:21:14;2.20;61.40
610;DHT22;292;48.800;9.216;2023-03-01T02:23:45;2.20;61.40
610;DHT22;292;48.800;9.216;2023-03-01T02:26:19;2.20;61.40
610;DHT22;292;48.800;9.216;2023-03-01T02:28:48;2.20;61.40
610;DHT22;292;48.800;9.216;2023-03-01T02:31:18;2.20;61.50
610;DHT22;292;48.800;9.216;2023-03-01T02:34:04;2.20;61.50
610;DHT22;292;48.800;9.216;2023-03-01T02:36:35;2.20;61.50
610;DHT22;292;48.800;9.216;2023-03-01T02:39:04;2.20;61.50
610;DHT22;292;48.800;9.216;2023-03-01T02:41:36;2.20;61.70
610;DHT22;292;48.800;9.216;2023-03-01T02:44:05;2.30;61.80
610;DHT22;292;48.800;9.216;2023-03-01T02:46:41;2.30;61.80
610;DHT22;292;48.800;9.216;2023-03-01T02:49:18;2.40;61.80
610;DHT22;292;48.800;9.216;2023-03-01T02:51:52;2.40;61.70
610;DHT22;292;48.800;9.216;2023-03-01T02:54:25;2.40;61.70
610;DHT22;292;48.800;9.216;2023-03-01T02:56:55;2.40;61.70
610;DHT22;292;48.800;9.216;2023-03-01T02:59:26;2.40;61.70
610;DHT22;292;48.800;9.216;2023-03-01T03:01:55;2.40;61.80
610;DHT22;292;48.800;9.216;2023-03-01T03:04:22;2.40;61.80
610;DHT22;292;48.800;9.216;2023-03-01T03:06:50;2.40;61.80
610;DHT22;292;48.800;9.216;2023-03-01T03:09:18;2.40;61.80
610;DHT22;292;48.800;9.216;2023-03-01T03:11:45;2.40;62.00
610;DHT22;292;48.800;9.216;2023-03-01T03:14:14;2.40;62.00
610;DHT22;292;48.800;9.216;2023-03-01T03:16:45;2.50;62.00
610;DHT22;292;48.800;9.216;2023-03-01T03:19:13;2.50;62.00
610;DHT22;292;48.800;9.216;2023-03-01T03:21:40;2.60;62.00
610;DHT22;292;48.800;9.216;2023-03-01T03:24:08;2.60;62.00
610;DHT22;292;48.800;9.216;2023-03-01T03:26:35;2.60;61.80
610;DHT22;292;48.800;9.216;2023-03-01T03:29:02;2.60;61.70
610;DHT22;292;48.800;9.216;2023-03-01T03:31:31;2.60;61.70
610;DHT22;292;48.800;9.216;2023-03-01T03:33:59;2.70;61.70
610;DHT22;292;48.800;9.216;2023-03-01T03:36:26;2.70;61.70
610;DHT22;292;48.800;9.216;2023-03-01T03:38:53;2.70;61.50
610;DHT22;292;48.800;9.216;2023-03-01T03:41:21;2.70;61.50
610;DHT22;292;48.800;9.216;2023-03-01T03:43:48;2.70;61.70
610;DHT22;292;48.800;9.216;2023-03-01T03:46:15;2.70;61.70
610;DHT22;292;48.800;9.216;2023-03-01T03:48:44;2.70;61.70
610;DHT22;292;48.800;9.216;2023-03-01T03:51:14;2.70;61.80
610;DHT22;292;48.800;9.216;2023-03-01T03:53:41;2.70;61.80
610;DHT22;292;48.800;9.216;2023-03-01T03:56:09;2.80;61.70
610;DHT22;292;48.800;9.216;2023-03-01T03:58:36;2.80;61.70
610;DHT22;292;48.800;9.216;2023-03-01T04:01:03;2.80;61.70
610;DHT22;292;48.800;9.216;2023-03-01T04:03:32;2.80;61.70
610;DHT22;292;48.800;9.216;2023-03-01T04:06:00;2.80;61.50
610;DHT22;292;48.800;9.216;2023-03-01T04:08:29;2.80;61.70
610;DHT22;292;48.800;9.216;2023-03-01T04:11:01;2.80;61.50
610;DHT22;292;48.800;9.216;2023-03-01T04:13:49;2.90;61.50
610;DHT22;292;48.800;9.216;2023-03-01T04:16:16;2.90;61.50
610;DHT22;292;48.800;9.216;2023-03-01T04:18:44;2.90;61.70
610;DHT22;292;48.800;9.216;2023-03-01T04:21:11;3.00;61.50
610;DHT22;292;48.800;9.216;2023-03-01T04:23:40;3.00;61.40
610;DHT22;292;48.800;9.216;2023-03-01T04:26:09;3.00;61.40
610;DHT22;292;48.800;9.216;2023-03-01T04:28:37;3.00;61.40
610;DHT22;292;48.800;9.216;2023-03-01T04:31:08;3.00;61.40
610;DHT22;292;48.800;9.216;2023-03-01T04:33:40;3.10;61.40
610;DHT22;292;48.800;9.216;2023-03-01T04:36:08;3.10;61.20
610;DHT22;292;48.800;9.216;2023-03-01T04:38:36;3.10;61.20
610;DHT22;292;48.800;9.216;2023-03-01T04:41:06;3.10;61.20
610;DHT22;292;48.800;9.216;2023-03-01T04:43:34;3.20;61.20
610;DHT22;292;48.800;9.216;2023-03-01T04:46:01;3.20;61.10
610;DHT22;292;48.800;9.216;2023-03-01T04:48:30;3.20;61.00
610;DHT22;292;48.800;9.216;2023-03-01T04:50:59;3.20;61.00
610;DHT22;292;48.800;9.216;2023-03-01T04:53:27;3.20;61.00
610;DHT22;292;48.800;9.216;2023-03-01T04:55:54;3.20;61.00
610;DHT22;292;48.800;9.216;2023-03-01T04:58:24;3.30;60.80
610;DHT22;292;48.800;9.216;2023-03-01T05:00:52;3.30;60.70
610;DHT22;292;48.800;9.216;2023-03-01T05:03:19;3.30;60.70
610;DHT22;292;48.800;9.216;2023-03-01T05:05:49;3.30;60.50
610;DHT22;292;48.800;9.216;2023-03-01T05:08:17;3.40;60.50
610;DHT22;292;48.800;9.216;2023-03-01T05:10:46;3.40;60.50
610;DHT22;292;48.800;9.216;2023-03-01T05:13:13;3.40;60.50
610;DHT22;292;48.800;9.216;2023-03-01T05:15:48;3.40;60.40
610;DHT22;292;48.800;9.216;2023-03-01T05:18:15;3.40;60.20
610;DHT22;292;48.800;9.216;2023-03-01T05:20:42;3.40;60.20
610;DHT22;292;48.800;9.216;2023-03-01T05:23:10;3.40;60.20
610;DHT22;292;48.800;9.216;2023-03-01T05:25:37;3.40;60.20
610;DHT22;292;48.800;9.216;2023-03-01T05:28:06;3.40;60.20
610;DHT22;292;48.800;9.216;2023-03-01T05:30:35;3.40;60.20
610;DHT22;292;48.800;9.216;2023-03-01T05:33:07;3.50;60.10
610;DHT22;292;48.800;9.216;2023-03-01T05:35:40;3.50;60.10
610;DHT22;292;48.800;9.216;2023-03-01T05:38:08;3.50;60.10
610;DHT22;292;48.800;9.216;2023-03-01T05:40:39;3.50;60.10
610;DHT22;292;48.800;9.216;2023-03-01T05:43:06;3.50;60.10
610;DHT22;292;48.800;9.216;2023-03-01T05:45:36;3.40;60.00
610;DHT22;292;48.800;9.216;2023-03-01T05:48:08;3.40;60.10
610;DHT22;292;48.800;9.216;2023-03-01T05:50:37;3.40;60.00
610;DHT22;292;48.800;9.216;2023-03-01T05:53:06;3.40;60.00
610;DHT22;292;48.800;9.216;2023-03-01T05:55:34;3.40;60.00
610;DHT22;292;48.800;9.216;2023-03-01T05:58:03;3.40;60.10
610;DHT22;292;48.800;9.216;2023-03-01T06:00:30;3.40;60.10
610;DHT22;292;48.800;9.216;2023-03-01T06:02:58;3.40;60.10
610;DHT22;292;48.800;9.216;2023-03-01T06:05:27;3.40;60.10
610;DHT22;292;48.800;9.216;2023-03-01T06:07:55;3.40;60.10
610;DHT22;292;48.800;9.216;2023-03-01T06:10:24;3.40;60.10
610;DHT22;292;48.800;9.216;2023-03-01T06:12:51;3.40;60.10
610;DHT22;292;48.800;9.216;2023-03-01T06:15:19;3.40;60.10
610;DHT22;292;48.800;9.216;2023-03-01T06:17:46;3.40;60.10
610;DHT22;292;48.800;9.216;2023-03-01T06:20:15;3.40;60.10
610;DHT22;292;48.800;9.216;2023-03-01T06:22:44;3.40;60.10
610;DHT22;292;48.800;9.216;2023-03-01T06:25:14;3.40;60.10
610;DHT22;292;48.800;9.216;2023-03-01T06:27:42;3.40;60.00
610;DHT22;292;48.800;9.216;2023-03-01T06:30:11;3.40;60.10
610;DHT22;292;48.800;9.216;2023-03-01T06:32:39;3.40;60.00
610;DHT22;292;48.800;9.216;2023-03-01T06:35:08;3.40;60.00
610;DHT22;292;48.800;9.216;2023-03-01T06:37:35;3.40;60.00
610;DHT22;292;48.800;9.216;2023-03-01T06:40:06;3.30;60.00
610;DHT22;292;48.800;9.216;2023-03-01T06:42:34;3.30;60.10
610;DHT22;292;48.800;9.216;2023-03-01T06:45:01;3.30;60.00
610;DHT22;292;48.800;9.216;2023-03-01T06:47:28;3.30;60.10
610;DHT22;292;48.800;9.216;2023-03-01T06:49:55;3.20;60.10
610;DHT22;292;48.800;9.216;2023-03-01T06:52:21;3.20;60.10
610;DHT22;292;48.800;9.216;2023-03-01T06:54:48;3.30;60.20
610;DHT22;292;48.800;9.216;2023-03-01T06:57:17;3.30;60.20
610;DHT22;292;48.800;9.216;2023-03-01T06:59:44;3.30;60.20
610;DHT22;292;48.800;9.216;2023-03-01T07:02:11;3.30;60.40
610;DHT22;292;48.800;9.216;2023-03-01T07:04:39;3.40;60.20
610;DHT22;292;48.800;9.216;2023-03-01T07:07:06;3.40;60.20
610;DHT22;292;48.800;9.216;2023-03-01T07:09:33;3.40;60.20
610;DHT22;292;48.800;9.216;2023-03-01T07:12:00;3.40;60.20
610;DHT22;292;48.800;9.216;2023-03-01T07:14:29;3.50;60.10
610;DHT22;292;48.800;9.216;2023-03-01T07:16:56;3.50;60.10
610;DHT22;292;48.800;9.216;2023-03-01T07:19:23;3.50;60.00
610;DHT22;292;48.800;9.216;2023-03-01T07:21:50;3.50;59.80
610;DHT22;292;48.800;9.216;2023-03-01T07:24:17;3.50;59.80
610;DHT22;292;48.800;9.216;2023-03-01T07:26:47;3.50;59.80
610;DHT22;292;48.800;9.216;2023-03-01T07:29:14;3.60;59.70
610;DHT22;292;48.800;9.216;2023-03-01T07:31:43;3.60;59.60
610;DHT22;292;48.800;9.216;2023-03-01T07:34:10;3.60;59.60
610;DHT22;292;48.800;9.216;2023-03-01T07:36:37;3.60;59.40
610;DHT22;292;48.800;9.216;2023-03-01T07:39:05;3.60;59.40
610;DHT22;292;48.800;9.216;2023-03-01T07:41:32;3.60;59.20
610;DHT22;292;48.800;9.216;2023-03-01T07:43:59;3.60;59.20
610;DHT22;292;48.800;9.216;2023-03-01T07:46:26;3.60;59.20
610;DHT22;292;48.800;9.216;2023-03-01T07:48:55;3.60;59.20
610;DHT22;292;48.800;9.216;2023-03-01T07:51:23;3.70;59.20
610;DHT22;292;48.800;9.216;2023-03-01T07:53:50;3.70;59.00
610;DHT22;292;48.800;9.216;2023-03-01T07:56:17;3.70;59.00
610;DHT22;292;48.800;9.216;2023-03-01T07:58:45;3.70;59.00
610;DHT22;292;48.800;9.216;2023-03-01T08:01:14;3.80;58.90
610;DHT22;292;48.800;9.216;2023-03-01T08:03:41;3.80;59.00
610;DHT22;292;48.800;9.216;2023-03-01T08:06:16;3.90;58.90
610;DHT22;292;48.800;9.216;2023-03-01T08:08:44;3.90;58.90
610;DHT22;292;48.800;9.216;2023-03-01T08:11:12;4.00;58.80
610;DHT22;292;48.800;9.216;2023-03-01T08:13:39;4.00;58.80
610;DHT22;292;48.800;9.216;2023-03-01T08:16:09;4.10;58.50
610;DHT22;292;48.800;9.216;2023-03-01T08:18:36;4.10;58.50
610;DHT22;292;48.800;9.216;2023-03-01T08:21:04;4.10;58.40
610;DHT22;292;48.800;9.216;2023-03-01T08:23:34;4.20;58.20
610;DHT22;292;48.800;9.216;2023-03-01T08:26:04;4.30;58.10
610;DHT22;292;48.800;9.216;2023-03-01T08:28:32;4.30;58.00
610;DHT22;292;48.800;9.216;2023-03-01T08:30:59;4.40;57.80
610;DHT22;292;48.800;9.216;2023-03-01T08:33:28;4.40;57.70
610;DHT22;292;48.800;9.216;2023-03-01T08:36:03;4.50;57.60
610;DHT22;292;48.800;9.216;2023-03-01T08:38:34;4.50;57.40
610;DHT22;292;48.800;9.216;2023-03-01T08:41:01;4.60;57.00
610;DHT22;292;48.800;9.216;2023-03-01T08:43:29;4.70;56.90
610;DHT22;292;48.800;9.216;2023-03-01T08:45:56;4.80;56.90
610;DHT22;292;48.800;9.216;2023-03-01T08:48:23;4.90;56.80
610;DHT22;292;48.800;9.216;2023-03-01T08:50:50;5.00;56.60
610;DHT22;292;48.800;9.216;2023-03-01T08:53:17;5.20;56.40
610;DHT22;292;48.800;9.216;2023-03-01T08:55:45;5.30;56.00
610;DHT22;292;48.800;9.216;2023-03-01T08:58:13;5.40;55.80
610;DHT22;292;48.800;9.216;2023-03-01T09:00:41;5.50;55.60
610;DHT22;292;48.800;9.216;2023-03-01T09:03:08;5.70;55.20
610;DHT22;292;48.800;9.216;2023-03-01T09:05:40;5.80;54.80
610;DHT22;292;48.800;9.216;2023-03-01T09:08:07;5.90;54.40
610;DHT22;292;48.800;9.216;2023-03-01T09:10:37;6.00;54.10
610;DHT22;292;48.800;9.216;2023-03-01T09:13:06;6.20;53.80
610;DHT22;292;48.800;9.216;2023-03-01T09:15:33;6.30;53.60
610;DHT22;292;48.800;9.216;2023-03-01T09:18:00;6.40;53.20
610;DHT22;292;48.800;9.216;2023-03-01T09:20:27;6.50;52.90
610;DHT22;292;48.800;9.216;2023-03-01T09:22:54;6.60;52.80
610;DHT22;292;48.800;9.216;2023-03-01T09:25:21;6.70;52.50
610;DHT22;292;48.800;9.216;2023-03-01T09:27:50;6.80;52.10
610;DHT22;292;48.800;9.216;2023-03-01T09:30:20;6.90;51.60
610;DHT22;292;48.800;9.216;2023-03-01T09:32:47;7.00;51.60
610;DHT22;292;48.800;9.216;2023-03-01T09:35:14;7.00;51.30
610;DHT22;292;48.800;9.216;2023-03-01T09:37:41;7.10;51.30
610;DHT22;292;48.800;9.216;2023-03-01T09:40:14;7.20;51.30
610;DHT22;292;48.800;9.216;2023-03-01T09:42:48;7.30;50.80
610;DHT22;292;48.800;9.216;2023-03-01T09:45:26;7.30;50.60
610;DHT22;292;48.800;9.216;2023-03-01T09:47:54;7.30;50.40
610;DHT22;292;48.800;9.216;2023-03-01T09:50:23;7.30;50.00
610;DHT22;292;48.800;9.216;2023-03-01T09:52:54;7.30;50.00
610;DHT22;292;48.800;9.216;2023-03-01T09:55:31;7.30;49.80
610;DHT22;292;48.800;9.216;2023-03-01T09:58:25;7.40;49.80
610;DHT22;292;48.800;9.216;2023-03-01T10:00:56;7.40;49.80
610;DHT22;292;48.800;9.216;2023-03-01T10:03:28;7.40;49.70
610;DHT22;292;48.800;9.216;2023-03-01T10:06:01;7.50;49.70
610;DHT22;292;48.800;9.216;2023-03-01T10:08:36;7.50;49.70
610;DHT22;292;48.800;9.216;2023-03-01T10:11:19;7.50;49.30
610;DHT22;292;48.800;9.216;2023-03-01T10:13:54;7.60;48.90
610;DHT22;292;48.800;9.216;2023-03-01T10:16:27;7.60;48.60
610;DHT22;292;48.800;9.216;2023-03-01T10:18:59;7.70;48.40
610;DHT22;292;48.800;9.216;2023-03-01T10:21:27;7.80;47.80
610;DHT22;292;48.800;9.216;2023-03-01T10:24:01;7.80;47.60
610;DHT22;292;48.800;9.216;2023-03-01T10:26:48;7.90;47.40
610;DHT22;292;48.800;9.216;2023-03-01T10:29:20;7.90;47.30
610;DHT22;292;48.800;9.216;2023-03-01T10:31:56;7.90;47.20
610;DHT22;292;48.800;9.216;2023-03-01T10:34:37;8.00;46.80
610;DHT22;292;48.800;9.216;2023-03-01T10:37:11;8.00;46.60
610;DHT22;292;48.800;9.216;2023-03-01T10:39:55;8.10;46.60
610;DHT22;292;48.800;9.216;2023-03-01T10:42:27;8.20;46.40
610;DHT22;292;48.800;9.216;2023-03-01T10:44:58;8.30;46.40
610;DHT22;292;48.800;9.216;2023-03-01T10:47:28;8.40;46.10
610;DHT22;292;48.800;9.216;2023-03-01T10:49:57;8.40;45.80
610;DHT22;292;48.800;9.216;2023-03-01T10:52:33;8.50;45.40
610;DHT22;292;48.800;9.216;2023-03-01T10:55:23;8.60;45.20
610;DHT22;292;48.800;9.216;2023-03-01T10:58:07;8.70;44.90
610;DHT22;292;48.800;9.216;2023-03-01T11:00:46;8.80;44.90
610;DHT22;292;48.800;9.216;2023-03-01T11:03:22;8.80;44.80
610;DHT22;292;48.800;9.216;2023-03-01T11:06:03;8.90;44.90
610;DHT22;292;48.800;9.216;2023-03-01T11:08:37;9.00;44.80
610;DHT22;292;48.800;9.216;2023-03-01T11:11:17;9.10;44.60
610;DHT22;292;48.800;9.216;2023-03-01T11:13:56;9.30;44.50
610;DHT22;292;48.800;9.216;2023-03-01T11:16:26;9.40;44.40
610;DHT22;292;48.800;9.216;2023-03-01T11:19:03;9.50;44.20
610;DHT22;292;48.800;9.216;2023-03-01T11:21:33;9.60;43.80
610;DHT22;292;48.800;9.216;2023-03-01T11:24:02;9.70;43.60
610;DHT22;292;48.800;9.216;2023-03-01T11:26:37;9.90;43.60
610;DHT22;292;48.800;9.216;2023-03-01T11:29:18;10.10;43.30
610;DHT22;292;48.800;9.216;2023-03-01T11:31:48;10.20;43.00
610;DHT22;292;48.800;9.216;2023-03-01T11:34:21;10.40;42.90
610;DHT22;292;48.800;9.216;2023-03-01T11:36:53;10.60;42.40
610;DHT22;292;48.800;9.216;2023-03-01T11:39:28;10.80;42.10
610;DHT22;292;48.800;9.216;2023-03-01T11:42:04;11.00;41.40
610;DHT22;292;48.800;9.216;2023-03-01T11:44:33;11.20;41.20
610;DHT22;292;48.800;9.216;2023-03-01T11:47:29;11.40;40.90
610;DHT22;292;48.800;9.216;2023-03-01T11:50:15;11.60;40.20
610;DHT22;292;48.800;9.216;2023-03-01T11:52:54;11.80;39.80
610;DHT22;292;48.800;9.216;2023-03-01T11:55:41;12.00;39.70
610;DHT22;292;48.800;9.216;2023-03-01T11:58:27;12.20;39.60
610;DHT22;292;48.800;9.216;2023-03-01T12:01:06;12.40;39.40
610;DHT22;292;48.800;9.216;2023-03-01T12:06:44;12.80;38.10
610;DHT22;292;48.800;9.216;2023-03-01T12:09:27;13.00;37.80
610;DHT22;292;48.800;9.216;2023-03-01T12:12:15;13.00;37.40
610;DHT22;292;48.800;9.216;2023-03-01T12:14:51;13.10;37.30
610;DHT22;292;48.800;9.216;2023-03-01T12:17:45;13.10;37.30
610;DHT22;292;48.800;9.216;2023-03-01T12:20:20;13.20;36.60
610;DHT22;292;48.800;9.216;2023-03-01T12:23:00;13.20;36.50
610;DHT22;292;48.800;9.216;2023-03-01T12:25:34;13.10;36.20
610;DHT22;292;48.800;9.216;2023-03-01T12:31:43;13.10;36.10
610;DHT22;292;48.800;9.216;2023-03-01T12:34:25;13.10;35.80
610;DHT22;292;48.800;9.216;2023-03-01T12:37:09;13.00;35.60
610;DHT22;292;48.800;9.216;2023-03-01T12:39:52;13.00;35.80
610;DHT22;292;48.800;9.216;2023-03-01T12:42:27;12.90;35.70
610;DHT22;292;48.800;9.216;2023-03-01T12:48:02;13.00;35.70
610;DHT22;292;48.800;9.216;2023-03-01T12:50:39;12.90;35.80
610;DHT22;292;48.800;9.216;2023-03-01T12:53:23;12.90;35.80
610;DHT22;292;48.800;9.216;2023-03-01T12:55:54;12.90;35.80
610;DHT22;292;48.800;9.216;2023-03-01T12:58:26;12.90;35.80
610;DHT22;292;48.800;9.216;2023-03-01T13:01:05;12.80;36.00
610;DHT22;292;48.800;9.216;2023-03-01T13:03:55;12.80;36.00
610;DHT22;292;48.800;9.216;2023-03-01T13:06:32;12.80;36.00
610;DHT22;292;48.800;9.216;2023-03-01T13:09:09;12.80;35.80
610;DHT22;292;48.800;9.216;2023-03-01T13:11:43;12.80;35.80
610;DHT22;292;48.800;9.216;2023-03-01T13:14:45;12.80;35.80
610;DHT22;292;48.800;9.216;2023-03-01T13:17:40;12.80;36.00
610;DHT22;292;48.800;9.216;2023-03-01T13:20:16;12.80;36.00
610;DHT22;292;48.800;9.216;2023-03-01T13:22:45;12.90;36.00
610;DHT22;292;48.800;9.216;2023-03-01T13:27:27;12.90;35.80
610;DHT22;292;48.800;9.216;2023-03-01T13:54:26;12.90;35.80
610;DHT22;292;48.800;9.216;2023-03-01T13:56:55;12.90;36.00
610;DHT22;292;48.800;9.216;2023-03-01T13:59:23;12.90;36.00
610;DHT22;292;48.800;9.216;2023-03-01T14:01:56;12.90;36.00
610;DHT22;292;48.800;9.216;2023-03-01T14:04:27;12.80;36.10
610;DHT22;292;48.800;9.216;2023-03-01T14:07:10;12.80;36.20
610;DHT22;292;48.800;9.216;2023-03-01T14:09:41;12.80;36.20
610;DHT22;292;48.800;9.216;2023-03-01T14:12:26;12.80;36.20
610;DHT22;292;48.800;9.216;2023-03-01T14:14:59;12.70;36.20
610;DHT22;292;48.800;9.216;2023-03-01T14:17:44;12.70;36.40
610;DHT22;292;48.800;9.216;2023-03-01T14:20:17;12.70;36.40
610;DHT22;292;48.800;9.216;2023-03-01T14:22:46;12.60;36.40
610;DHT22;292;48.800;9.216;2023-03-01T14:25:23;12.60;36.60
610;DHT22;292;48.800;9.216;2023-03-01T14:27:56;12.60;36.50
610;DHT22;292;48.800;9.216;2023-03-01T14:30:26;12.60;36.50
610;DHT22;292;48.800;9.216;2023-03-01T14:32:57;12.60;36.60
610;DHT22;292;48.800;9.216;2023-03-01T14:35:27;12.60;36.60
610;DHT22;292;48.800;9.216;2023-03-01T14:37:54;12.50;36.60
610;DHT22;292;48.800;9.216;2023-03-01T14:40:25;12.50;36.80
610;DHT22;292;48.800;9.216;2023-03-01T14:42:54;12.40;36.90
610;DHT22;292;48.800;9.216;2023-03-01T14:45:23;12.40;36.90
610;DHT22;292;48.800;9.216;2023-03-01T14:47:51;12.30;37.20
610;DHT22;292;48.800;9.216;2023-03-01T14:50:24;12.30;37.30
610;DHT22;292;48.800;9.216;2023-03-01T14:52:54;12.30;37.40
610;DHT22;292;48.800;9.216;2023-03-01T14:55:26;12.20;37.40
610;DHT22;292;48.800;9.216;2023-03-01T14:57:57;12.20;37.40
610;DHT22;292;48.800;9.216;2023-03-01T15:00:26;12.10;37.60
610;DHT22;292;48.800;9.216;2023-03-01T15:02:56;12.10;37.60
610;DHT22;292;48.800;9.216;2023-03-01T15:05:32;12.00;37.70
610;DHT22;292;48.800;9.216;2023-03-01T15:08:01;12.00;37.70
610;DHT22;292;48.800;9.216;2023-03-01T15:10:33;11.90;37.80
610;DHT22;292;48.800;9.216;2023-03-01T15:13:11;11.90;38.00
610;DHT22;292;48.800;9.216;2023-03-01T15:15:41;11.80;38.10
610;DHT22;292;48.800;9.216;2023-03-01T15:18:16;11.70;38.20
610;DHT22;292;48.800;9.216;2023-03-01T15:20:44;11.60;38.50
610;DHT22;292;48.800;9.216;2023-03-01T15:23:32;11.50;38.60
610;DHT22;292;48.800;9.216;2023-03-01T15:26:01;11.50;38.80
610;DHT22;292;48.800;9.216;2023-03-01T15:28:30;11.40;38.90
610;DHT22;292;48.800;9.216;2023-03-01T15:31:01;11.40;39.00
610;DHT22;292;48.800;9.216;2023-03-01T15:33:38;11.30;39.20
610;DHT22;292;48.800;9.216;2023-03-01T15:36:36;11.30;39.20
610;DHT22;292;48.800;9.216;2023-03-01T15:39:04;11.20;39.20
610;DHT22;292;48.800;9.216;2023-03-01T15:41:38;11.20;39.30
610;DHT22;292;48.800;9.216;2023-03-01T15:44:16;11.10;39.40
610;DHT22;292;48.800;9.216;2023-03-01T15:46:46;11.10;39.40
610;DHT22;292;48.800;9.216;2023-03-01T15:49:27;11.00;39.30
610;DHT22;292;48.800;9.216;2023-03-01T15:51:55;10.90;39.30
610;DHT22;292;48.800;9.216;2023-03-01T15:54:25;10.80;39.40
610;DHT22;292;48.800;9.216;2023-03-01T15:56:54;10.80;39.70
610;DHT22;292;48.800;9.216;2023-03-01T15:59:21;10.70;39.70
610;DHT22;292;48.800;9.216;2023-03-01T16:01:49;10.70;39.70
610;DHT22;292;48.800;9.216;2023-03-01T16:04:18;10.70;39.80
610;DHT22;292;48.800;9.216;2023-03-01T16:06:49;10.60;39.80
610;DHT22;292;48.800;9.216;2023-03-01T16:09:21;10.60;40.00
610;DHT22;292;48.800;9.216;2023-03-01T16:11:48;10.60;40.00
610;DHT22;292;48.800;9.216;2023-03-01T16:14:18;10.60;40.10
610;DHT22;292;48.800;9.216;2023-03-01T16:16:46;10.60;40.10
610;DHT22;292;48.800;9.216;2023-03-01T16:19:14;10.60;40.00
610;DHT22;292;48.800;9.216;2023-03-01T16:21:41;10.50;40.00
610;DHT22;292;48.800;9.216;2023-03-01T16:24:09;10.50;40.00
610;DHT22;292;48.800;9.216;2023-03-01T16:26:37;10.50;40.10
610;DHT22;292;48.800;9.216;2023-03-01T16:29:04;10.50;40.20
610;DHT22;292;48.800;9.216;2023-03-01T16:31:33;10.40;40.20
610;DHT22;292;48.800;9.216;2023-03-01T16:34:00;10.40;40.40
610;DHT22;292;48.800;9.216;2023-03-01T16:36:27;10.40;40.50
610;DHT22;292;48.800;9.216;2023-03-01T16:38:55;10.40;40.50
610;DHT22;292;48.800;9.216;2023-03-01T16:41:23;10.40;40.50
610;DHT22;292;48.800;9.216;2023-03-01T16:43:50;10.30;40.50
610;DHT22;292;48.800;9.216;2023-03-01T16:46:20;10.30;40.60
610;DHT22;292;48.800;9.216;2023-03-01T16:48:50;10.30;40.60
610;DHT22;292;48.800;9.216;2023-03-01T16:51:18;10.30;40.80
610;DHT22;292;48.800;9.216;2023-03-01T16:53:45;10.30;40.80
610;DHT22;292;48.800;9.216;2023-03-01T16:56:14;10.20;40.80
610;DHT22;292;48.800;9.216;2023-03-01T16:58:41;10.20;40.80
610;DHT22;292;48.800;9.216;2023-03-01T17:01:11;10.20;40.90
610;DHT22;292;48.800;9.216;2023-03-01T17:03:39;10.10;40.90
610;DHT22;292;48.800;9.216;2023-03-01T17:06:16;10.10;41.00
610;DHT22;292;48.800;9.216;2023-03-01T17:08:44;10.10;41.00
610;DHT22;292;48.800;9.216;2023-03-01T17:11:14;10.10;41.30
610;DHT22;292;48.800;9.216;2023-03-01T17:13:44;10.10;41.40
610;DHT22;292;48.800;9.216;2023-03-01T17:16:13;10.00;41.60
610;DHT22;292;48.800;9.216;2023-03-01T17:18:41;10.00;41.80
610;DHT22;292;48.800;9.216;2023-03-01T17:21:10;10.00;41.80
610;DHT22;292;48.800;9.216;2023-03-01T17:23:39;9.90;42.00
610;DHT22;292;48.800;9.216;2023-03-01T17:26:07;9.90;42.10
610;DHT22;292;48.800;9.216;2023-03-01T17:28:37;9.90;42.10
610;DHT22;292;48.800;9.216;2023-03-01T17:31:06;9.90;42.20
610;DHT22;292;48.800;9.216;2023-03-01T17:33:33;9.80;42.40
610;DHT22;292;48.800;9.216;2023-03-01T17:36:03;9.80;42.40
610;DHT22;292;48.800;9.216;2023-03-01T17:38:32;9.70;42.50
610;DHT22;292;48.800;9.216;2023-03-01T17:41:01;9.70;42.50
610;DHT22;292;48.800;9.216;2023-03-01T17:43:28;9.70;42.60
610;DHT22;292;48.800;9.216;2023-03-01T17:45:56;9.70;42.60
610;DHT22;292;48.800;9.216;2023-03-01T17:48:23;9.60;42.60